createdAt,value
2018-10-09T00:02:12.683Z,16.07
2018-10-09T00:04:41.562Z,13.68
2018-10-09T00:07:10.750Z,15.05
2018-10-09T00:09:39.449Z,15.10
2018-10-09T00:12:08.383Z,15.53
2018-10-09T00:14:37.579Z,16.23
2018-10-09T00:17:06.966Z,16.77
2018-10-09T00:19:36.395Z,16.07
2018-10-09T00:22:05.707Z,15.90
2018-10-09T00:24:34.633Z,16.50
2018-10-09T00:27:03.563Z,16.48
2018-10-09T00:29:32.670Z,16.17
2018-10-09T00:32:01.633Z,16.05
2018-10-09T00:34:30.253Z,14.33
2018-10-09T00:36:59.744Z,15.38
2018-10-09T00:39:28.746Z,16.65
2018-10-09T00:41:57.754Z,16.82
2018-10-09T00:44:27.109Z,17.50
2018-10-09T00:46:55.997Z,17.15
2018-10-09T00:49:25.319Z,18.17
2018-10-09T00:51:54.592Z,18.85
2018-10-09T00:54:23.698Z,16.02
2018-10-09T00:56:53.487Z,17.42
2018-10-09T00:59:22.874Z,15.75
2018-10-09T01:01:52.421Z,16.65
2018-10-09T01:04:21.247Z,17.05
2018-10-09T01:06:50.255Z,16.25
2018-10-09T01:09:19.239Z,15.55
2018-10-09T01:11:48.321Z,15.53
2018-10-09T01:14:17.507Z,16.60
2018-10-09T01:16:46.499Z,17.27
2018-10-09T01:19:16.081Z,17.15
2018-10-09T01:21:45.408Z,18.17
2018-10-09T01:24:14.186Z,16.77
2018-10-09T01:26:43.080Z,16.50
2018-10-09T01:29:14.838Z,17.40
2018-10-09T01:31:43.846Z,17.57
2018-10-09T01:34:12.828Z,18.15
2018-10-09T01:36:42.286Z,18.42
2018-10-09T01:39:11.758Z,17.00
2018-10-09T01:41:41.440Z,19.25
2018-10-09T01:44:10.624Z,17.50
2018-10-09T01:46:39.552Z,17.77
2018-10-09T01:49:08.921Z,16.70
2018-10-09T01:51:38.390Z,17.73
2018-10-09T01:54:07.734Z,17.82
2018-10-09T01:56:37.151Z,17.50
2018-10-09T01:59:06.602Z,18.37
2018-10-09T02:01:35.466Z,19.05
2018-10-09T02:04:04.360Z,18.95
2018-10-09T02:06:33.545Z,18.70
2018-10-09T02:09:02.644Z,17.45
2018-10-09T02:11:32.039Z,17.92
2018-10-09T02:14:01.292Z,17.82
2018-10-09T02:16:30.150Z,18.02
2018-10-09T02:18:59.647Z,18.00
2018-10-09T02:21:28.678Z,16.90
2018-10-09T02:23:57.539Z,16.67
2018-10-09T02:26:26.261Z,16.48
2018-10-09T02:28:56.060Z,15.93
2018-10-09T02:31:24.855Z,16.75
2018-10-09T02:33:53.915Z,17.32
2018-10-09T02:36:23.030Z,17.60
2018-10-09T02:38:52.206Z,18.20
2018-10-09T02:41:21.152Z,17.12
2018-10-09T02:43:50.830Z,16.45
2018-10-09T02:46:19.906Z,16.42
2018-10-09T02:48:48.810Z,17.27
2018-10-09T02:51:18.113Z,17.70
2018-10-09T02:53:47.278Z,16.93
2018-10-09T02:56:16.303Z,17.15
2018-10-09T02:58:45.605Z,16.65
2018-10-09T03:01:14.347Z,17.25
2018-10-09T03:03:44.091Z,17.62
2018-10-09T03:06:13.092Z,17.48
2018-10-09T03:08:42.076Z,17.50
2018-10-09T03:11:11.600Z,18.60
2018-10-09T03:13:40.473Z,17.95
2018-10-09T03:16:09.495Z,16.95
2018-10-09T03:18:38.545Z,16.87
2018-10-09T03:21:07.751Z,17.02
2018-10-09T03:23:36.975Z,15.50
2018-10-09T03:26:06.247Z,18.15
2018-10-09T03:28:35.140Z,16.20
2018-10-09T03:31:04.301Z,17.45
2018-10-09T03:33:33.642Z,16.37
2018-10-09T03:36:02.750Z,18.02
2018-10-09T03:38:31.436Z,18.25
2018-10-09T03:41:00.998Z,18.57
2018-10-09T03:43:29.642Z,17.42
2018-10-09T03:45:58.550Z,18.30
2018-10-09T03:48:27.867Z,17.98
2018-10-09T03:50:56.735Z,17.32
2018-10-09T03:53:25.728Z,16.62
2018-10-09T03:55:54.975Z,17.95
2018-10-09T03:58:24.099Z,18.55
2018-10-09T04:00:53.021Z,17.92
2018-10-09T04:03:22.143Z,17.37
2018-10-09T04:05:50.876Z,17.10
2018-10-09T04:08:20.101Z,16.50
2018-10-09T04:10:49.223Z,17.25
2018-10-09T04:13:18.158Z,16.48
2018-10-09T04:15:47.283Z,16.95
2018-10-09T04:18:16.237Z,16.50
2018-10-09T04:20:45.281Z,16.65
2018-10-09T04:23:14.986Z,16.65
2018-10-09T04:25:44.367Z,17.20
2018-10-09T04:28:13.196Z,15.78
2018-10-09T04:30:42.384Z,16.35
2018-10-09T04:33:12.254Z,15.98
2018-10-09T04:35:41.299Z,16.00
2018-10-09T04:38:10.295Z,19.05
2018-10-09T04:40:39.636Z,19.32
2018-10-09T04:43:09.309Z,17.05
2018-10-09T04:45:38.557Z,17.65
2018-10-09T04:48:07.922Z,19.60
2018-10-09T04:50:37.110Z,16.42
2018-10-09T04:53:06.835Z,14.33
2018-10-09T04:55:36.059Z,15.25
2018-10-09T04:58:05.762Z,14.15
2018-10-09T05:00:35.450Z,15.32
2018-10-09T05:03:04.540Z,17.45
2018-10-09T05:05:33.632Z,13.65
2018-10-09T05:08:03.063Z,13.65
2018-10-09T05:10:32.132Z,19.00
2018-10-09T05:13:01.033Z,16.90
2018-10-09T05:15:30.651Z,19.17
2018-10-09T05:17:59.858Z,16.17
2018-10-09T05:20:29.036Z,19.15
2018-10-09T05:22:58.239Z,16.35
2018-10-09T05:25:27.311Z,15.95
2018-10-09T05:27:56.106Z,16.65
2018-10-09T05:30:25.474Z,16.80
2018-10-09T05:32:54.702Z,17.27
2018-10-09T05:35:23.778Z,19.15
2018-10-09T05:37:54.097Z,14.68
2018-10-09T05:40:24.974Z,14.98
2018-10-09T05:42:54.855Z,18.00
2018-10-09T05:45:28.107Z,14.23
2018-10-09T05:47:57.309Z,14.50
2018-10-09T05:50:26.603Z,11.93
2018-10-09T05:52:55.899Z,11.93
2018-10-09T05:55:25.196Z,11.05
2018-10-09T05:57:54.301Z,11.00
2018-10-09T06:00:23.491Z,9.90
2018-10-09T06:02:52.810Z,10.03
2018-10-09T06:05:21.946Z,10.23
2018-10-09T06:07:51.211Z,10.23
2018-10-09T06:10:20.680Z,11.43
2018-10-09T06:12:49.697Z,12.05
2018-10-09T06:15:18.948Z,12.23
2018-10-09T06:17:48.104Z,12.23
2018-10-09T06:20:17.199Z,14.05
2018-10-09T06:22:46.499Z,11.78
2018-10-09T06:25:15.916Z,14.25
2018-10-09T06:27:45.107Z,13.25
2018-10-09T06:30:14.360Z,14.13
2018-10-09T06:32:43.954Z,13.90
2018-10-09T06:35:13.046Z,13.03
2018-10-09T06:37:42.110Z,14.38
2018-10-09T06:40:11.653Z,12.47
2018-10-09T06:42:40.679Z,14.23
2018-10-09T06:45:09.790Z,15.13
2018-10-09T06:47:39.512Z,13.85
2018-10-09T06:50:08.675Z,14.03
2018-10-09T06:52:37.878Z,9.90
2018-10-09T06:55:07.301Z,5.65
2018-10-09T06:57:37.018Z,5.45
2018-10-09T07:00:06.343Z,8.25
2018-10-09T07:02:35.734Z,9.05
2018-10-09T07:05:04.836Z,10.00
2018-10-09T07:07:34.335Z,10.30
2018-10-09T07:10:03.968Z,11.15
2018-10-09T07:12:33.091Z,8.23
2018-10-09T07:15:02.350Z,8.10
2018-10-09T07:17:31.460Z,8.75
2018-10-09T07:20:00.735Z,8.65
2018-10-09T07:22:30.055Z,8.58
2018-10-09T07:24:59.569Z,8.83
2018-10-09T07:27:28.555Z,10.82
2018-10-09T07:29:57.727Z,7.70
2018-10-09T07:32:26.997Z,8.63
2018-10-09T07:34:56.066Z,8.70
2018-10-09T07:37:25.208Z,6.67
2018-10-09T07:39:54.720Z,6.17
2018-10-09T07:42:23.815Z,5.10
2018-10-09T07:44:52.839Z,4.45
2018-10-09T07:47:22.317Z,3.90
2018-10-09T07:49:51.410Z,4.65
2018-10-09T07:52:20.729Z,2.95
2018-10-09T07:54:49.882Z,2.33
2018-10-09T07:57:18.942Z,0.80
2018-10-09T07:59:48.122Z,1.50
2018-10-09T08:02:17.607Z,2.05
2018-10-09T08:04:46.850Z,1.65
2018-10-09T08:07:15.939Z,0.98
2018-10-09T08:09:45.445Z,1.87
2018-10-09T08:12:14.593Z,2.10
2018-10-09T08:14:44.766Z,1.05
2018-10-09T08:17:14.142Z,2.00
2018-10-09T08:19:43.188Z,1.57
2018-10-09T08:22:12.372Z,1.20
2018-10-09T08:24:41.704Z,1.87
2018-10-09T08:27:10.974Z,1.70
2018-10-09T08:29:40.379Z,1.20
2018-10-09T08:32:09.945Z,1.00
2018-10-09T08:34:39.095Z,0.90
2018-10-09T08:37:08.167Z,1.17
2018-10-09T08:39:37.586Z,0.85
2018-10-09T08:42:06.828Z,1.12
2018-10-09T08:44:36.067Z,1.20
2018-10-09T08:47:05.507Z,1.00
2018-10-09T08:49:34.570Z,1.00
2018-10-09T08:52:03.739Z,0.98
2018-10-09T08:54:33.117Z,1.40
2018-10-09T08:57:02.360Z,0.80
2018-10-09T08:59:31.478Z,0.50
2018-10-09T09:02:00.698Z,0.80
2018-10-09T09:04:29.782Z,0.60
2018-10-09T09:06:58.875Z,0.60
2018-10-09T09:09:28.525Z,0.85
2018-10-09T09:11:57.791Z,0.55
2018-10-09T09:14:27.024Z,0.57
2018-10-09T09:16:56.403Z,0.70
2018-10-09T09:19:25.693Z,1.00
2018-10-09T09:21:54.725Z,0.50
2018-10-09T09:24:23.880Z,0.40
2018-10-09T09:26:53.085Z,0.60
2018-10-09T09:29:22.225Z,0.53
2018-10-09T09:31:51.411Z,0.60
2018-10-09T09:34:20.684Z,0.70
2018-10-09T09:36:50.069Z,0.70
2018-10-09T09:39:19.543Z,0.88
2018-10-09T09:41:48.622Z,0.60
2018-10-09T09:44:17.755Z,0.90
2018-10-09T09:46:47.730Z,0.70
2018-10-09T09:49:16.869Z,0.90
2018-10-09T09:51:45.994Z,0.88
2018-10-09T09:54:15.341Z,1.02
2018-10-09T09:56:44.478Z,1.10
2018-10-09T09:59:13.731Z,1.05
2018-10-09T10:01:43.940Z,1.40
2018-10-09T10:04:13.923Z,0.95
2018-10-09T10:06:43.243Z,1.37
2018-10-09T10:09:12.909Z,1.10
2018-10-09T10:11:42.967Z,0.88
2018-10-09T10:14:12.218Z,0.50
2018-10-09T10:16:41.576Z,0.50
2018-10-09T10:19:10.735Z,0.55
2018-10-09T10:21:39.955Z,0.50
2018-10-09T10:24:09.403Z,1.00
2018-10-09T10:26:38.675Z,1.12
2018-10-09T10:29:08.523Z,0.70
2018-10-09T10:31:37.603Z,0.70
2018-10-09T10:34:06.878Z,0.50
2018-10-09T10:36:36.081Z,0.50
2018-10-09T10:39:07.740Z,0.60
2018-10-09T10:41:36.928Z,0.50
2018-10-09T10:44:06.087Z,0.60
2018-10-09T10:46:40.200Z,0.50
2018-10-09T10:49:13.854Z,0.60
2018-10-09T10:51:43.155Z,0.50
2018-10-09T10:54:12.327Z,0.53
2018-10-09T10:56:41.356Z,0.40
2018-10-09T10:59:10.763Z,0.50
2018-10-09T11:01:39.809Z,0.50
2018-10-09T11:04:08.844Z,0.50
2018-10-09T11:06:38.167Z,0.70
2018-10-09T11:09:09.762Z,0.47
2018-10-09T11:11:39.102Z,0.50
2018-10-09T11:14:08.371Z,0.50
2018-10-09T11:16:37.443Z,0.40
2018-10-09T11:19:07.134Z,0.40
2018-10-09T11:21:36.910Z,0.40
2018-10-09T11:24:06.255Z,0.40
2018-10-09T11:26:36.708Z,0.40
2018-10-09T11:29:05.947Z,0.40
2018-10-09T11:31:35.013Z,0.53
2018-10-09T11:34:04.440Z,0.40
2018-10-09T11:36:33.761Z,0.40
2018-10-09T11:39:02.973Z,0.50
2018-10-09T11:41:32.291Z,0.50
2018-10-09T11:44:01.287Z,0.30
2018-10-09T11:46:30.456Z,0.40
2018-10-09T11:49:01.774Z,0.30
2018-10-09T11:51:30.945Z,0.47
2018-10-09T11:54:00.057Z,0.30
2018-10-09T11:56:29.566Z,0.40
2018-10-09T11:58:58.693Z,0.30
2018-10-09T12:01:27.855Z,0.50
2018-10-09T12:03:57.464Z,0.40
2018-10-09T12:06:26.476Z,0.33
2018-10-09T12:08:55.753Z,0.30
2018-10-09T12:11:30.066Z,0.30
2018-10-09T12:13:59.320Z,0.37
2018-10-09T12:16:29.719Z,0.30
2018-10-09T12:18:59.689Z,0.28
2018-10-09T12:21:33.774Z,0.30
2018-10-09T12:24:04.018Z,0.30
2018-10-09T12:26:33.171Z,0.20
2018-10-09T12:29:04.772Z,0.30
2018-10-09T12:31:34.091Z,0.40
2018-10-09T12:34:03.226Z,0.40
2018-10-09T12:36:32.218Z,0.30
2018-10-09T12:39:01.523Z,0.30
2018-10-09T12:41:39.902Z,0.30
2018-10-09T12:44:09.250Z,0.30
2018-10-09T12:46:39.459Z,0.40
2018-10-09T12:49:08.987Z,0.35
2018-10-09T12:51:38.486Z,0.30
2018-10-09T12:54:07.567Z,0.28
2018-10-09T12:56:36.773Z,0.25
2018-10-09T12:59:06.385Z,0.40
2018-10-09T13:01:35.475Z,0.30
2018-10-09T13:04:04.772Z,0.30
2018-10-09T13:06:34.430Z,0.30
2018-10-09T13:09:03.819Z,0.30
2018-10-09T13:11:32.843Z,0.30
2018-10-09T13:14:01.963Z,0.40
2018-10-09T13:16:31.135Z,0.30
2018-10-09T13:19:00.941Z,0.30
2018-10-09T13:21:30.452Z,0.20
2018-10-09T13:23:59.442Z,0.20
2018-10-09T13:26:28.657Z,0.40
2018-10-09T13:28:58.078Z,0.33
2018-10-09T13:31:27.242Z,0.20
2018-10-09T13:33:56.456Z,0.20
2018-10-09T13:36:25.545Z,0.30
2018-10-09T13:38:54.546Z,0.30
2018-10-09T13:41:23.842Z,0.28
2018-10-09T13:43:53.476Z,0.30
2018-10-09T13:46:22.737Z,0.30
2018-10-09T13:48:51.821Z,0.30
2018-10-09T13:51:21.403Z,0.30
2018-10-09T13:53:50.626Z,0.30
2018-10-09T13:56:19.760Z,0.20
2018-10-09T13:58:49.274Z,0.30
2018-10-09T14:01:18.669Z,0.28
2018-10-09T14:03:48.063Z,0.30
2018-10-09T14:06:17.440Z,0.62
2018-10-09T14:08:46.765Z,0.30
2018-10-09T14:11:15.867Z,0.40
2018-10-09T14:13:45.892Z,0.50
2018-10-09T14:16:22.322Z,0.30
2018-10-09T14:18:52.270Z,0.50
2018-10-09T14:21:21.416Z,0.40
2018-10-09T14:23:50.709Z,0.40
2018-10-09T14:26:20.286Z,0.40
2018-10-09T14:28:49.615Z,0.40
2018-10-09T14:31:18.647Z,0.40
2018-10-09T14:33:48.183Z,0.40
2018-10-09T14:36:17.517Z,0.30
2018-10-09T14:38:46.819Z,0.37
2018-10-09T14:41:16.339Z,0.33
2018-10-09T14:43:45.524Z,0.37
2018-10-09T14:46:14.692Z,0.40
2018-10-09T14:48:43.987Z,0.40
2018-10-09T14:51:13.151Z,0.40
2018-10-09T14:53:42.348Z,0.40
2018-10-09T14:56:11.627Z,0.40
2018-10-09T14:58:40.903Z,0.40
2018-10-09T15:01:10.374Z,0.40
2018-10-09T15:03:39.631Z,0.40
2018-10-09T15:06:08.990Z,0.40
2018-10-09T15:08:38.237Z,0.40
2018-10-09T15:11:07.604Z,0.40
2018-10-09T15:13:36.676Z,0.40
2018-10-09T15:16:05.894Z,0.40
2018-10-09T15:18:35.290Z,0.60
2018-10-09T15:21:04.350Z,0.50
2018-10-09T15:23:33.517Z,0.50
2018-10-09T15:26:02.811Z,0.40
2018-10-09T15:28:32.687Z,0.40
2018-10-09T15:31:01.808Z,0.50
2018-10-09T15:33:31.154Z,0.50
2018-10-09T15:36:00.324Z,0.50
2018-10-09T15:38:29.591Z,0.53
2018-10-09T15:40:58.694Z,0.50
2018-10-09T15:43:27.832Z,0.50
2018-10-09T15:45:57.000Z,0.60
2018-10-09T15:48:26.232Z,0.72
2018-10-09T15:50:55.332Z,0.60
2018-10-09T15:53:25.015Z,0.80
2018-10-09T15:55:54.351Z,2.15
2018-10-09T15:58:23.564Z,1.70
2018-10-09T16:00:52.899Z,0.98
2018-10-09T16:03:22.274Z,0.70
2018-10-09T16:05:51.441Z,0.85
2018-10-09T16:08:21.195Z,1.10
2018-10-09T16:10:50.664Z,1.85
2018-10-09T16:13:19.759Z,0.95
2018-10-09T16:15:49.169Z,1.90
2018-10-09T16:18:18.300Z,1.20
2018-10-09T16:20:47.409Z,3.90
2018-10-09T16:23:16.470Z,6.12
2018-10-09T16:25:45.727Z,2.98
2018-10-09T16:28:14.836Z,2.22
2018-10-09T16:30:43.984Z,1.07
2018-10-09T16:33:13.217Z,4.12
2018-10-09T16:35:42.397Z,5.75
2018-10-09T16:38:11.478Z,5.65
2018-10-09T16:40:40.587Z,8.38
2018-10-09T16:43:09.627Z,9.48
2018-10-09T16:45:39.092Z,11.05
2018-10-09T16:48:08.364Z,10.48
2018-10-09T16:50:37.357Z,11.38
2018-10-09T16:53:06.563Z,11.18
2018-10-09T16:55:35.420Z,7.28
2018-10-09T16:58:04.679Z,6.95
2018-10-09T17:00:33.727Z,2.55
2018-10-09T17:03:03.627Z,4.95
2018-10-09T17:05:33.196Z,3.95
2018-10-09T17:08:02.291Z,4.20
2018-10-09T17:10:31.294Z,6.78
2018-10-09T17:13:00.230Z,4.97
2018-10-09T17:15:29.204Z,6.15
2018-10-09T17:17:58.582Z,4.55
2018-10-09T17:20:27.600Z,2.75
2018-10-09T17:22:56.563Z,5.37
2018-10-09T17:25:25.483Z,2.60
2018-10-09T17:27:54.664Z,3.42
2018-10-09T17:30:23.647Z,3.72
2018-10-09T17:32:53.005Z,3.58
2018-10-09T17:35:22.230Z,2.77
2018-10-09T17:37:51.634Z,2.10
2018-10-09T17:40:20.975Z,4.40
2018-10-09T17:42:49.900Z,7.28
2018-10-09T17:45:18.953Z,8.80
2018-10-09T17:47:48.198Z,7.67
2018-10-09T17:50:17.334Z,7.58
2018-10-09T17:52:46.998Z,5.03
2018-10-09T17:55:16.395Z,5.22
2018-10-09T17:57:45.346Z,5.15
2018-10-09T18:00:14.438Z,5.35
2018-10-09T18:02:43.367Z,4.85
2018-10-09T18:05:12.250Z,5.20
2018-10-09T18:07:41.812Z,5.62
2018-10-09T18:10:11.002Z,6.15
2018-10-09T18:12:39.871Z,6.47
2018-10-09T18:15:10.590Z,6.25
2018-10-09T18:17:39.679Z,7.05
2018-10-09T18:20:08.744Z,6.33
2018-10-09T18:22:37.902Z,7.45
2018-10-09T18:25:07.667Z,14.40
2018-10-09T18:27:37.100Z,17.77
2018-10-09T18:30:06.274Z,16.15
2018-10-09T18:32:35.816Z,19.67
2018-10-09T18:35:05.604Z,17.87
2018-10-09T18:37:34.700Z,16.48
2018-10-09T18:40:04.350Z,17.40
2018-10-09T18:42:33.437Z,15.45
2018-10-09T18:45:02.347Z,15.85
2018-10-09T18:47:36.702Z,16.23
2018-10-09T18:50:05.674Z,15.53
2018-10-09T18:52:34.606Z,12.60
2018-10-09T18:55:05.047Z,11.12
2018-10-09T18:57:34.188Z,9.85
2018-10-09T19:00:03.220Z,9.60
2018-10-09T19:02:32.690Z,8.38
2018-10-09T19:05:01.523Z,9.18
2018-10-09T19:07:31.019Z,7.17
2018-10-09T19:10:00.284Z,7.30
2018-10-09T19:12:29.427Z,7.75
2018-10-09T19:14:58.435Z,7.95
2018-10-09T19:17:27.921Z,7.72
2018-10-09T19:19:57.125Z,8.38
2018-10-09T19:22:26.139Z,8.43
2018-10-09T19:24:55.579Z,10.13
2018-10-09T19:27:25.342Z,9.88
2018-10-09T19:29:54.335Z,10.43
2018-10-09T19:32:23.686Z,11.08
2018-10-09T19:34:53.270Z,10.23
2018-10-09T19:37:22.287Z,11.43
2018-10-09T19:39:52.423Z,11.70
2018-10-09T19:42:21.355Z,11.73
2018-10-09T19:44:50.847Z,11.53
2018-10-09T19:47:19.975Z,11.88
2018-10-09T19:49:48.940Z,11.78
2018-10-09T19:52:17.939Z,12.47
2018-10-09T19:54:47.867Z,12.15
2018-10-09T19:57:17.147Z,11.73
2018-10-09T19:59:46.638Z,11.43
2018-10-09T20:02:15.796Z,11.50
2018-10-09T20:04:44.762Z,11.38
2018-10-09T20:07:13.858Z,12.05
2018-10-09T20:09:43.780Z,11.63
2018-10-09T20:12:12.868Z,12.60
2018-10-09T20:14:45.362Z,12.15
2018-10-09T20:17:18.547Z,11.95
2018-10-09T20:19:48.178Z,11.18
2018-10-09T20:22:21.619Z,10.85
2018-10-09T20:24:51.087Z,10.68
2018-10-09T20:27:20.762Z,11.88
2018-10-09T20:29:50.641Z,12.95
2018-10-09T20:32:20.916Z,11.40
2018-10-09T20:34:50.107Z,11.00
2018-10-09T20:37:19.495Z,11.18
2018-10-09T20:39:49.387Z,10.98
2018-10-09T20:42:18.611Z,11.18
2018-10-09T20:44:47.508Z,11.40
2018-10-09T20:47:21.027Z,11.33
2018-10-09T20:49:50.223Z,11.70
2018-10-09T20:52:20.424Z,13.00
2018-10-09T20:54:50.071Z,11.68
2018-10-09T20:57:18.833Z,12.75
2018-10-09T20:59:47.726Z,12.93
2018-10-09T21:02:16.935Z,13.65
2018-10-09T21:04:46.124Z,13.83
2018-10-09T21:07:14.992Z,11.73
2018-10-09T21:09:44.380Z,14.53
2018-10-09T21:12:13.419Z,12.25
2018-10-09T21:14:42.306Z,13.45
2018-10-09T21:17:11.641Z,12.73
2018-10-09T21:19:40.594Z,13.95
2018-10-09T21:22:09.342Z,12.13
2018-10-09T21:24:38.568Z,12.95
2018-10-09T21:27:07.611Z,12.33
2018-10-09T21:29:37.043Z,13.20
2018-10-09T21:32:06.165Z,13.78
2018-10-09T21:34:35.600Z,15.83
2018-10-09T21:37:04.541Z,16.45
2018-10-09T21:39:33.700Z,18.82
2018-10-09T21:42:03.160Z,18.07
2018-10-09T21:47:02.785Z,15.18
2018-10-09T21:49:32.242Z,17.32
2018-10-09T21:52:01.109Z,15.10
2018-10-09T21:54:30.991Z,17.77
2018-10-09T21:57:00.358Z,14.20
2018-10-09T21:59:29.419Z,13.53
2018-10-09T22:01:59.129Z,14.53
2018-10-09T22:04:27.966Z,18.62
2018-10-09T22:06:56.919Z,18.55
2018-10-09T22:09:25.705Z,25.17
2018-10-09T22:11:54.487Z,24.75
2018-10-09T22:14:23.855Z,19.90
2018-10-09T22:16:53.068Z,22.32
2018-10-09T22:19:22.974Z,24.50
2018-10-09T22:21:51.963Z,24.10
2018-10-09T22:24:21.747Z,23.92
2018-10-09T22:26:50.672Z,20.48
2018-10-09T22:29:19.943Z,19.80
2018-10-09T22:31:48.624Z,16.82
2018-10-09T22:34:18.030Z,17.75
2018-10-09T22:36:46.735Z,16.48
2018-10-09T22:39:15.703Z,17.32
2018-10-09T22:41:45.717Z,18.42
2018-10-09T22:44:14.669Z,19.30
2018-10-09T22:46:43.540Z,20.68
2018-10-09T22:49:13.438Z,21.48
2018-10-09T22:51:43.215Z,20.75
2018-10-09T22:54:12.330Z,20.90
2018-10-09T22:56:41.608Z,20.75
2018-10-09T22:59:10.477Z,19.70
2018-10-09T23:01:39.646Z,20.27
2018-10-09T23:04:08.938Z,20.35
2018-10-09T23:06:38.620Z,19.90
2018-10-09T23:09:10.425Z,19.12
2018-10-09T23:11:39.555Z,18.40
2018-10-09T23:14:08.558Z,19.05
2018-10-09T23:16:37.955Z,18.23
2018-10-09T23:19:06.935Z,20.25
2018-10-09T23:21:35.967Z,18.90
2018-10-09T23:24:04.783Z,20.08
2018-10-09T23:26:34.131Z,20.27
2018-10-09T23:29:03.259Z,19.17
2018-10-09T23:31:32.219Z,18.98
2018-10-09T23:34:01.297Z,18.12
2018-10-09T23:36:30.335Z,18.92
2018-10-09T23:38:59.526Z,19.27
2018-10-09T23:41:28.334Z,18.77
2018-10-09T23:43:57.266Z,19.70
2018-10-09T23:46:26.368Z,19.37
2018-10-09T23:48:55.427Z,20.27
2018-10-09T23:51:24.515Z,18.30
2018-10-09T23:53:53.360Z,18.27
2018-10-09T23:56:22.301Z,19.48
2018-10-09T23:58:51.439Z,18.48
